Time;durP1;ratioP1;P1;durP2;ratioP2;P2;SDS_P1;SDS_P2;PMS_P1;PMS_P2;Temp;Humidity;BMP_temperature;BMP_pressure;BME280_temperature;BME280_humidity;BME280_pressure;Samples;Min_cycle;Max_cycle;Signal;HPM_P1;HPM_P2
2021/05/19 00:00:41;;;;;;;;;;;;;;;27.57;32.24;100122.94;5056735;28;815;-37
2021/05/19 00:03:06;;;;;;;;;;;;;;;27.56;32.43;100126.69;5059116;28;799;-34
2021/05/19 00:05:31;;;;;;;;;;;;;;;27.62;32.11;100136.69;5059104;28;815;-35
2021/05/19 00:07:57;;;;;;;;;;;;;;;27.59;32.07;100127.09;5059494;28;817;-35
2021/05/19 00:10:22;;;;;;;;;;;;;;;27.57;32.39;100134.59;5058610;28;1957;-35
2021/05/19 00:12:47;;;;;;;;;;;;;;;27.58;32.33;100135.41;5058641;28;952;-35
2021/05/19 00:15:13;;;;;;;;;;;;;;;27.54;32.38;100139.56;5059470;28;854;-35
2021/05/19 00:17:41;;;;;;;;;;;;;;;27.51;32.61;100141.63;5058474;28;819;-35
2021/05/19 00:20:07;;;;;;;;;;;;;;;27.57;32.34;100147.28;5058971;28;748;-35
2021/05/19 00:22:32;;;;;;;;;;;;;;;27.58;32.47;100148.94;5059557;28;780;-35
2021/05/19 00:24:57;;;;;;;;;;;;;;;27.51;32.42;100146.19;5058776;28;796;-35
2021/05/19 00:27:23;;;;;;;;;;;;;;;27.56;32.28;100149.13;5058247;28;948;-37
2021/05/19 00:29:50;;;;;;;;;;;;;;;27.58;32.57;100155.16;5058697;28;1913;-36
2021/05/19 00:32:15;;;;;;;;;;;;;;;27.60;32.39;100152.25;5058685;28;841;-35
2021/05/19 00:34:40;;;;;;;;;;;;;;;27.59;32.57;100156.00;5058569;28;840;-40
2021/05/19 00:37:06;;;;;;;;;;;;;;;27.60;32.53;100152.25;5058631;28;1016;-37
2021/05/19 00:39:31;;;;;;;;;;;;;;;27.57;32.22;100150.81;5058674;28;1292;-36
2021/05/19 00:41:56;;;;;;;;;;;;;;;27.55;32.35;100160.13;5057927;28;927;-36
2021/05/19 00:44:22;;;;;;;;;;;;;;;27.56;32.72;100153.72;5058195;28;960;-37
2021/05/19 00:46:47;;;;;;;;;;;;;;;27.56;32.73;100167.22;5058611;28;779;-36
2021/05/19 00:49:12;;;;;;;;;;;;;;;27.56;32.58;100170.75;5058211;28;1971;-36
2021/05/19 00:51:38;;;;;;;;;;;;;;;27.56;32.39;100178.84;5058170;28;811;-34
2021/05/19 00:54:03;;;;;;;;;;;;;;;27.59;32.69;100189.25;5058757;28;827;-37
2021/05/19 00:56:28;;;;;;;;;;;;;;;27.57;32.48;100187.78;5057558;28;939;-37
2021/05/19 00:58:54;;;;;;;;;;;;;;;27.56;32.69;100178.03;5058191;28;795;-36
2021/05/19 01:01:20;;;;;;;;;;;;;;;27.57;32.78;100168.88;5058169;28;896;-36
2021/05/19 01:03:45;;;;;;;;;;;;;;;27.56;32.59;100175.34;5057639;28;851;-36
2021/05/19 01:06:16;;;;;;;;;;;;;;;27.58;32.21;100176.78;5040274;28;768;-35
2021/05/19 01:11:25;;;;;;;;;;;;;;;27.58;32.65;100184.03;5056877;28;920;-36
2021/05/19 01:13:50;;;;;;;;;;;;;;;27.56;32.76;100183.44;5058042;28;755;-38
2021/05/19 01:16:15;;;;;;;;;;;;;;;27.59;32.54;100191.94;5040245;28;853;-36
2021/05/19 01:18:41;;;;;;;;;;;;;;;27.58;32.50;100195.69;5057727;28;790;-36
2021/05/19 01:21:06;;;;;;;;;;;;;;;27.61;32.39;100194.47;5058126;28;779;-36
2021/05/19 01:23:32;;;;;;;;;;;;;;;27.57;32.86;100201.31;5057800;28;863;-36
2021/05/19 01:25:57;;;;;;;;;;;;;;;27.56;32.71;100192.34;5057318;28;732;-35
2021/05/19 01:28:23;;;;;;;;;;;;;;;27.55;32.68;100187.16;5057336;28;943;-36
2021/05/19 01:30:48;;;;;;;;;;;;;;;27.51;32.77;100187.56;5057001;28;1902;-35
2021/05/19 01:33:13;;;;;;;;;;;;;;;27.53;32.77;100189.25;5057320;28;780;-36
2021/05/19 01:35:39;;;;;;;;;;;;;;;27.57;32.79;100201.31;5057939;28;839;-36
2021/05/19 01:38:05;;;;;;;;;;;;;;;27.58;32.95;100189.44;5057385;28;803;-36
2021/05/19 01:40:31;;;;;;;;;;;;;;;27.60;32.98;100192.78;5056979;28;1087;-35
2021/05/19 01:42:56;;;;;;;;;;;;;;;27.58;32.63;100186.75;5056706;28;987;-36
2021/05/19 01:45:25;;;;;;;;;;;;;;;27.62;32.68;100196.97;5057244;28;756;-35
2021/05/19 01:47:50;;;;;;;;;;;;;;;27.66;32.96;100199.28;5057153;28;748;-35
2021/05/19 01:50:20;;;;;;;;;;;;;;;27.68;32.74;100213.41;5057260;28;1914;-35
2021/05/19 01:52:45;;;;;;;;;;;;;;;27.62;32.97;100202.38;5056791;28;806;-35
2021/05/19 01:55:11;;;;;;;;;;;;;;;27.67;32.60;100200.94;5057204;28;790;-35
2021/05/19 01:57:36;;;;;;;;;;;;;;;27.62;32.80;100213.19;5056752;28;943;-35
2021/05/19 02:00:02;;;;;;;;;;;;;;;27.63;32.93;100204.03;5056845;28;748;-35
2021/05/19 02:02:28;;;;;;;;;;;;;;;27.62;32.97;100202.38;5057454;28;782;-35
2021/05/19 02:04:53;;;;;;;;;;;;;;;27.59;32.89;100201.94;5056853;28;866;-35
2021/05/19 02:07:19;;;;;;;;;;;;;;;27.61;32.89;100211.50;5056916;28;806;-36
2021/05/19 02:09:44;;;;;;;;;;;;;;;27.68;32.97;100211.56;5057228;28;1910;-35
2021/05/19 02:12:09;;;;;;;;;;;;;;;27.66;33.09;100201.97;5056274;28;915;-35
2021/05/19 02:14:35;;;;;;;;;;;;;;;27.65;33.22;100211.94;5057105;28;807;-35
2021/05/19 02:17:00;;;;;;;;;;;;;;;27.68;33.25;100208.00;5057008;28;977;-36
2021/05/19 02:19:25;;;;;;;;;;;;;;;27.67;33.31;100209.88;5056457;28;795;-35
2021/05/19 02:21:50;;;;;;;;;;;;;;;27.67;33.31;100204.47;5056740;28;772;-35
2021/05/19 02:24:16;;;;;;;;;;;;;;;27.67;33.24;100209.03;5038692;28;862;-35
2021/05/19 02:26:42;;;;;;;;;;;;;;;27.67;33.34;100207.19;5056032;28;920;-35
2021/05/19 02:29:07;;;;;;;;;;;;;;;27.61;33.40;100214.22;5056660;28;1963;-35
2021/05/19 02:31:32;;;;;;;;;;;;;;;27.60;33.59;100217.09;5056700;28;800;-35
2021/05/19 02:33:58;;;;;;;;;;;;;;;27.61;33.41;100219.59;5056172;28;820;-35
2021/05/19 02:36:23;;;;;;;;;;;;;;;27.58;33.37;100216.47;5056769;28;752;-36
2021/05/19 02:38:48;;;;;;;;;;;;;;;27.56;33.30;100219.38;5056592;28;1076;-35
2021/05/19 02:41:14;;;;;;;;;;;;;;;27.55;33.38;100224.97;5055726;28;931;-36
2021/05/19 02:43:39;;;;;;;;;;;;;;;27.52;33.55;100220.81;5056117;28;1168;-35
2021/05/19 02:46:05;;;;;;;;;;;;;;;27.53;33.43;100227.88;5056540;28;824;-35
2021/05/19 02:48:30;;;;;;;;;;;;;;;27.51;33.51;100228.06;5056346;28;751;-35
2021/05/19 02:50:55;;;;;;;;;;;;;;;27.59;33.41;100231.66;5056176;28;843;-35
2021/05/19 02:53:21;;;;;;;;;;;;;;;27.53;33.68;100235.97;5056566;28;796;-35
2021/05/19 02:55:46;;;;;;;;;;;;;;;27.47;33.85;100232.22;5056263;28;795;-35
2021/05/19 02:58:11;;;;;;;;;;;;;;;27.54;33.49;100234.97;5056205;28;936;-35
2021/05/19 03:00:36;;;;;;;;;;;;;;;27.53;33.74;100241.38;5056274;28;815;-35
2021/05/19 03:03:02;;;;;;;;;;;;;;;27.57;33.60;100233.72;5056032;28;819;-35
2021/05/19 03:05:29;;;;;;;;;;;;;;;27.54;33.72;100234.13;5056146;28;970;-35
2021/05/19 03:07:54;;;;;;;;;;;;;;;27.59;33.88;100242.47;5056268;28;752;-35
2021/05/19 03:10:19;;;;;;;;;;;;;;;27.51;33.71;100241.59;5055910;28;1898;-35
2021/05/19 03:12:45;;;;;;;;;;;;;;;27.55;33.78;100244.72;5055979;28;991;-35
2021/05/19 03:15:10;;;;;;;;;;;;;;;27.03;29.51;100247.66;5056258;28;811;-37
2021/05/19 03:17:36;;;;;;;;;;;;;;;26.56;28.78;100250.72;5056476;28;808;-37
2021/05/19 03:20:01;;;;;;;;;;;;;;;26.14;29.20;100250.47;5056115;28;766;-34
2021/05/19 03:22:26;;;;;;;;;;;;;;;26.08;28.38;100260.13;5056507;28;831;-37
2021/05/19 03:24:51;;;;;;;;;;;;;;;25.98;29.01;100255.03;5055862;28;820;-34
2021/05/19 03:27:17;;;;;;;;;;;;;;;25.48;28.58;100270.84;5055553;28;967;-35
2021/05/19 03:29:42;;;;;;;;;;;;;;;23.18;30.26;100259.84;5056006;28;1918;-35
2021/05/19 03:32:07;;;;;;;;;;;;;;;22.12;31.63;100261.09;5055715;28;949;-37
2021/05/19 03:34:33;;;;;;;;;;;;;;;21.94;31.77;100266.56;5056181;28;870;-37
2021/05/19 03:36:58;;;;;;;;;;;;;;;21.93;31.89;100266.72;5056279;28;819;-37
2021/05/19 03:39:23;;;;;;;;;;;;;;;21.89;32.30;100264.34;5055767;28;1092;-37
2021/05/19 03:41:49;;;;;;;;;;;;;;;21.24;33.39;100268.25;5055605;28;928;-40
2021/05/19 03:44:14;;;;;;;;;;;;;;;23.41;30.83;100266.38;5055845;28;798;-38
2021/05/19 03:46:39;;;;;;;;;;;;;;;24.31;30.00;100268.97;5055800;28;798;-39
2021/05/19 03:49:04;;;;;;;;;;;;;;;24.80;29.99;100267.88;5056032;28;1918;-40
2021/05/19 03:51:30;;;;;;;;;;;;;;;25.09;30.03;100270.84;5055925;28;811;-38
2021/05/19 03:53:55;;;;;;;;;;;;;;;25.29;29.59;100281.97;5058093;28;767;-38
2021/05/19 03:56:21;;;;;;;;;;;;;;;25.39;29.59;100281.69;5053334;28;1456;-39
2021/05/19 03:58:46;;;;;;;;;;;;;;;25.49;29.68;100286.00;5053579;28;1176;-38
2021/05/19 04:01:11;;;;;;;;;;;;;;;25.39;29.70;100281.69;5058893;28;1385;-40
2021/05/19 04:03:37;;;;;;;;;;;;;;;25.28;29.25;100291.06;5059456;28;811;-40
2021/05/19 04:06:02;;;;;;;;;;;;;;;25.26;29.51;100289.56;5059352;28;938;-40
2021/05/19 04:08:34;;;;;;;;;;;;;;;24.46;28.87;100287.91;5059456;28;855;-36
2021/05/19 04:10:59;;;;;;;;;;;;;;;23.44;30.04;100284.84;5058900;28;566;-37
2021/05/19 04:13:25;;;;;;;;;;;;;;;22.27;31.93;100285.44;5039556;28;944;-37
2021/05/19 04:15:50;;;;;;;;;;;;;;;22.04;31.93;100293.22;5039223;28;776;-37
2021/05/19 04:18:15;;;;;;;;;;;;;;;21.88;32.44;100285.94;5039138;28;820;-37
2021/05/19 04:20:41;;;;;;;;;;;;;;;22.04;32.08;100295.06;5039040;28;830;-36
2021/05/19 04:23:06;;;;;;;;;;;;;;;21.90;32.23;100283.97;5038932;28;539;-36
2021/05/19 04:25:34;;;;;;;;;;;;;;;21.85;31.89;100281.75;5038662;28;748;-36
2021/05/19 04:27:59;;;;;;;;;;;;;;;21.91;32.04;100290.97;5054299;28;948;-38
2021/05/19 04:30:25;;;;;;;;;;;;;;;21.89;32.12;100299.16;5058802;28;1959;-36
2021/05/19 04:32:50;;;;;;;;;;;;;;;22.30;31.54;100294.16;5058488;28;867;-38
2021/05/19 04:35:15;;;;;;;;;;;;;;;21.94;31.93;100293.34;5059218;28;772;-36
2021/05/19 04:37:40;;;;;;;;;;;;;;;22.54;31.24;100301.44;5058873;28;957;-36
2021/05/19 04:40:06;;;;;;;;;;;;;;;22.92;30.84;100301.06;5058033;28;1100;-38
2021/05/19 04:42:32;;;;;;;;;;;;;;;22.60;31.24;100295.50;5058636;28;1014;-37
2021/05/19 04:44:58;;;;;;;;;;;;;;;23.29;30.55;100306.13;5058665;28;779;-39
2021/05/19 04:47:24;;;;;;;;;;;;;;;23.80;30.00;100310.47;5058213;28;800;-38
2021/05/19 04:49:49;;;;;;;;;;;;;;;23.98;29.24;100312.94;5058401;28;1964;-38
2021/05/19 04:52:14;;;;;;;;;;;;;;;24.15;28.79;100310.19;5058327;28;772;-37
2021/05/19 04:54:39;;;;;;;;;;;;;;;24.29;28.85;100317.53;5058278;28;764;-36
2021/05/19 04:57:05;;;;;;;;;;;;;;;24.40;28.57;100316.34;5057909;28;971;-38
2021/05/19 04:59:30;;;;;;;;;;;;;;;24.40;28.54;100321.72;5058023;28;783;-36
2021/05/19 05:01:55;;;;;;;;;;;;;;;24.43;28.35;100317.81;5057946;28;760;-36
2021/05/19 05:04:21;;;;;;;;;;;;;;;24.32;28.71;100317.19;5057095;28;924;-36
2021/05/19 05:06:46;;;;;;;;;;;;;;;24.48;28.67;100315.44;5058053;28;835;-38
2021/05/19 05:09:11;;;;;;;;;;;;;;;24.80;28.82;100312.75;5057808;28;1979;-38
2021/05/19 05:11:36;;;;;;;;;;;;;;;24.98;29.24;100317.88;5057775;28;931;-38
2021/05/19 05:14:02;;;;;;;;;;;;;;;25.16;29.27;100311.34;5057896;28;823;-39
2021/05/19 05:16:27;;;;;;;;;;;;;;;25.29;29.60;100319.66;5057817;28;801;-40
2021/05/19 05:18:53;;;;;;;;;;;;;;;25.32;29.90;100323.84;5058370;28;836;-39
2021/05/19 05:21:18;;;;;;;;;;;;;;;25.43;29.90;100322.56;5057408;28;780;-41
2021/05/19 05:23:43;;;;;;;;;;;;;;;25.51;29.73;100309.03;5057753;28;772;-37
2021/05/19 05:26:09;;;;;;;;;;;;;;;25.63;29.60;100324.78;5057711;28;920;-36
2021/05/19 05:28:34;;;;;;;;;;;;;;;25.66;30.02;100310.94;5056997;28;940;-37
2021/05/19 05:30:59;;;;;;;;;;;;;;;25.72;30.03;100318.31;5057085;28;1898;-37
2021/05/19 05:33:25;;;;;;;;;;;;;;;25.70;30.26;100322.19;5057842;28;754;-37
2021/05/19 05:35:50;;;;;;;;;;;;;;;25.76;30.46;100311.50;5057629;28;779;-37
2021/05/19 05:38:15;;;;;;;;;;;;;;;25.74;30.96;100312.72;5056964;28;1041;-38
2021/05/19 05:40:41;;;;;;;;;;;;;;;25.74;31.54;100316.22;5057358;28;748;-39
2021/05/19 05:43:06;;;;;;;;;;;;;;;25.73;31.59;100322.66;5056939;28;979;-38
2021/05/19 05:45:31;;;;;;;;;;;;;;;25.74;32.10;100321.63;5057270;28;866;-38
2021/05/19 05:47:57;;;;;;;;;;;;;;;25.80;32.22;100320.06;5057441;28;806;-39
2021/05/19 05:50:22;;;;;;;;;;;;;;;25.75;33.24;100312.53;5057245;28;1969;-38
2021/05/19 05:52:47;;;;;;;;;;;;;;;25.82;33.18;100319.88;5056865;28;474;-38
2021/05/19 05:55:13;;;;;;;;;;;;;;;25.84;33.29;100310.56;5057273;28;799;-37
2021/05/19 05:57:38;;;;;;;;;;;;;;;25.83;33.90;100321.53;5056946;28;955;-38
2021/05/19 06:00:07;;;;;;;;;;;;;;;25.88;34.59;100321.81;5057261;28;756;-39
2021/05/19 06:02:32;;;;;;;;;;;;;;;25.90;35.04;100325.19;5057373;28;791;-39
2021/05/19 06:04:58;;;;;;;;;;;;;;;25.89;35.65;100332.41;5057288;28;1019;-39
2021/05/19 06:07:23;;;;;;;;;;;;;;;25.93;35.59;100324.81;5056923;28;799;-38
2021/05/19 06:09:52;;;;;;;;;;;;;;;25.97;35.75;100331.50;5057027;28;1902;-38
2021/05/19 06:12:18;;;;;;;;;;;;;;;26.00;35.55;100323.06;5056557;28;994;-38
2021/05/19 06:14:43;;;;;;;;;;;;;;;26.06;35.28;100328.72;5056835;28;804;-39
2021/05/19 06:17:11;;;;;;;;;;;;;;;26.09;35.41;100323.78;5056783;28;799;-38
2021/05/19 06:19:36;;;;;;;;;;;;;;;26.06;35.72;100324.16;5056628;28;1556;-38
2021/05/19 06:22:01;;;;;;;;;;;;;;;26.14;35.58;100329.44;5056707;28;820;-39
2021/05/19 06:24:26;;;;;;;;;;;;;;;26.13;34.79;100327.78;5057037;28;763;-39
2021/05/19 06:26:52;;;;;;;;;;;;;;;26.17;35.09;100328.25;5055962;28;924;-38
2021/05/19 06:29:17;;;;;;;;;;;;;;;26.19;34.85;100330.75;5056314;28;1906;-38
2021/05/19 06:31:42;;;;;;;;;;;;;;;26.16;34.71;100321.16;5056513;28;834;-39
2021/05/19 06:34:08;;;;;;;;;;;;;;;26.21;34.63;100329.53;5056798;28;787;-38
2021/05/19 06:36:37;;;;;;;;;;;;;;;26.16;35.04;100330.09;5056347;28;804;-37
2021/05/19 06:39:03;;;;;;;;;;;;;;;26.20;35.23;100333.25;5056039;28;1186;-38
2021/05/19 06:41:28;;;;;;;;;;;;;;;26.17;35.67;100322.84;5055980;28;951;-39
2021/05/19 06:43:54;;;;;;;;;;;;;;;26.21;35.54;100332.22;5056308;28;788;-39
2021/05/19 06:46:19;;;;;;;;;;;;;;;26.21;35.43;100332.22;5056634;28;823;-38
2021/05/19 06:48:44;;;;;;;;;;;;;;;26.27;35.36;100327.97;5056866;28;1914;-38
2021/05/19 06:51:09;;;;;;;;;;;;;;;26.27;35.44;100327.97;5056220;28;815;-38
2021/05/19 06:53:35;;;;;;;;;;;;;;;26.29;35.33;100328.63;5056081;28;806;-38
2021/05/19 06:56:01;;;;;;;;;;;;;;;26.32;35.27;100330.09;5048584;28;1206;-39
2021/05/19 06:58:26;;;;;;;;;;;;;;;26.32;35.34;100322.00;5049420;28;964;-39
2021/05/19 07:00:53;;;;;;;;;;;;;;;26.37;35.11;100330.41;5044513;28;1345;-38
2021/05/19 07:03:18;;;;;;;;;;;;;;;26.30;35.27;100330.28;5046205;28;1285;-38
2021/05/19 07:05:44;;;;;;;;;;;;;;;26.36;35.36;100331.44;5046476;28;1175;-38
2021/05/19 07:08:09;;;;;;;;;;;;;;;26.39;35.21;100339.97;5044531;28;1242;-38
2021/05/19 07:10:35;;;;;;;;;;;;;;;26.43;35.39;100328.78;5046490;28;1901;-38
2021/05/19 07:13:00;;;;;;;;;;;;;;;26.49;34.91;100339.66;5042624;28;1286;-39
2021/05/19 07:15:31;;;;;;;;;;;;;;;26.56;34.85;100339.75;5049367;28;1159;-38
2021/05/19 07:17:57;;;;;;;;;;;;;;;26.51;34.82;100334.06;5039278;28;1269;-38
2021/05/19 07:20:22;;;;;;;;;;;;;;;26.51;35.30;100344.88;5035859;28;1270;-38
2021/05/19 07:22:47;;;;;;;;;;;;;;;26.54;34.87;100344.50;5039886;28;1183;-38
2021/05/19 07:25:12;;;;;;;;;;;;;;;26.55;35.01;100356.13;5051153;28;1246;-37
2021/05/19 07:27:38;;;;;;;;;;;;;;;26.68;34.04;100352.75;5055694;28;988;-39
2021/05/19 07:30:03;;;;;;;;;;;;;;;26.86;33.10;100352.34;5039651;28;1906;-40
2021/05/19 07:32:29;;;;;;;;;;;;;;;26.94;32.98;100346.81;5040363;28;784;-39
2021/05/19 07:34:54;;;;;;;;;;;;;;;27.01;32.83;100338.75;5039933;28;771;-39
2021/05/19 07:37:19;;;;;;;;;;;;;;;27.08;32.51;100334.31;5039783;28;800;-39
2021/05/19 07:39:44;;;;;;;;;;;;;;;27.16;32.54;100346.03;5039711;28;1340;-38
2021/05/19 07:42:16;;;;;;;;;;;;;;;26.92;34.47;100339.94;5045719;28;987;-38
2021/05/19 07:44:41;;;;;;;;;;;;;;;26.94;34.19;100344.13;5059306;28;815;-38
2021/05/19 07:47:07;;;;;;;;;;;;;;;26.92;34.08;100338.06;5059727;28;863;-36
2021/05/19 07:49:32;;;;;;;;;;;;;;;26.97;34.27;100340.19;5059381;28;1922;-35
2021/05/19 07:51:57;;;;;;;;;;;;;;;26.99;34.23;100338.16;5059466;28;795;-37
2021/05/19 07:54:28;;;;;;;;;;;;;;;26.99;34.00;100338.97;5059432;28;843;-37
2021/05/19 07:57:00;;;;;;;;;;;;;;;26.96;34.08;100343.94;5059131;28;1006;-34
2021/05/19 07:59:29;;;;;;;;;;;;;;;26.67;30.78;100349.22;5059246;28;763;-39
2021/05/19 08:02:08;;;;;;;;;;;;;;;26.48;26.30;100343.41;5059356;28;760;-39
2021/05/19 08:04:34;;;;;;;;;;;;;;;26.55;26.43;100345.31;5059581;28;768;-37
2021/05/19 08:06:59;;;;;;;;;;;;;;;26.45;23.93;100341.09;5059193;28;803;-40
2021/05/19 08:09:24;;;;;;;;;;;;;;;26.62;26.19;100333.63;5059176;28;1967;-39
2021/05/19 08:11:50;;;;;;;;;;;;;;;26.62;25.42;100351.66;5058832;28;959;-35
2021/05/19 08:14:15;;;;;;;;;;;;;;;26.54;24.36;100349.91;5059280;28;768;-34
2021/05/19 08:16:41;;;;;;;;;;;;;;;26.41;24.39;100337.91;5058899;28;504;-37
2021/05/19 08:19:06;;;;;;;;;;;;;;;26.87;28.46;100351.31;5059702;28;759;-36
2021/05/19 08:21:32;;;;;;;;;;;;;;;26.85;30.23;100348.81;5058758;28;809;-37
2021/05/19 08:23:57;;;;;;;;;;;;;;;26.95;30.25;100345.78;5059087;28;885;-36
2021/05/19 08:26:22;;;;;;;;;;;;;;;27.08;31.04;100347.81;5058611;28;979;-36
2021/05/19 08:28:49;;;;;;;;;;;;;;;27.07;31.36;100338.06;5058408;28;1906;-37
2021/05/19 08:31:15;;;;;;;;;;;;;;;27.08;31.42;100342.41;5058704;28;839;-39
2021/05/19 08:33:41;;;;;;;;;;;;;;;27.11;31.56;100343.91;5059547;28;845;-38
2021/05/19 08:36:06;;;;;;;;;;;;;;;27.10;31.61;100339.50;5058734;28;752;-39
2021/05/19 08:38:34;;;;;;;;;;;;;;;27.14;31.43;100338.94;5058564;28;1098;-36
2021/05/19 08:41:03;;;;;;;;;;;;;;;27.20;31.41;100334.63;5058632;28;816;-37
2021/05/19 08:43:31;;;;;;;;;;;;;;;27.16;31.95;100319.84;5057876;28;1026;-37
2021/05/19 08:45:57;;;;;;;;;;;;;;;27.26;31.80;100316.81;5058715;28;788;-38
2021/05/19 08:48:22;;;;;;;;;;;;;;;27.26;31.69;100322.19;5040370;28;800;-38
2021/05/19 08:50:47;;;;;;;;;;;;;;;27.30;31.60;100323.50;5040377;28;1915;-36
2021/05/19 08:53:12;;;;;;;;;;;;;;;27.27;31.69;100323.91;5058653;28;836;-36
2021/05/19 08:55:38;;;;;;;;;;;;;;;27.27;31.81;100315.78;5041129;28;756;-35
2021/05/19 08:58:03;;;;;;;;;;;;;;;27.24;31.98;100321.59;5057729;28;999;-39
2021/05/19 09:00:30;;;;;;;;;;;;;;;27.24;32.15;100321.59;5058397;28;748;-35
2021/05/19 09:03:05;;;;;;;;;;;;;;;27.25;32.12;100318.69;5058225;28;838;-36
2021/05/19 09:05:31;;;;;;;;;;;;;;;27.22;32.14;100307.44;5058222;28;772;-35
2021/05/19 09:08:06;;;;;;;;;;;;;;;27.28;31.99;100311.25;5058297;28;821;-35
2021/05/19 09:10:31;;;;;;;;;;;;;;;27.24;32.22;100314.31;5057987;28;1910;-38
2021/05/19 09:12:56;;;;;;;;;;;;;;;27.24;32.24;100319.69;5057361;28;948;-39
2021/05/19 09:15:22;;;;;;;;;;;;;;;27.25;32.27;100316.00;5058231;28;855;-36
2021/05/19 09:17:53;;;;;;;;;;;;;;;27.31;32.34;100319.75;5057584;28;811;-35
2021/05/19 09:20:18;;;;;;;;;;;;;;;27.29;32.49;100304.78;5057753;28;807;-36
2021/05/19 09:22:45;;;;;;;;;;;;;;;27.33;31.92;100308.75;5058060;28;795;-36
2021/05/19 09:25:16;;;;;;;;;;;;;;;27.29;32.55;100308.34;5057658;28;819;-35
2021/05/19 09:27:42;;;;;;;;;;;;;;;27.31;32.25;100306.25;5056573;28;911;-35
2021/05/19 09:30:15;;;;;;;;;;;;;;;27.30;32.51;100310.00;5057426;28;1909;-39
2021/05/19 09:32:43;;;;;;;;;;;;;;;27.31;32.27;100308.16;5057024;28;782;-35
2021/05/19 09:35:08;;;;;;;;;;;;;;;27.33;32.34;100303.34;5057284;28;881;-39
2021/05/19 09:37:34;;;;;;;;;;;;;;;27.41;32.25;100303.22;5057553;28;771;-36
2021/05/19 09:40:03;;;;;;;;;;;;;;;27.36;32.17;100303.81;5056708;28;1086;-35
2021/05/19 09:42:40;;;;;;;;;;;;;;;27.43;31.97;100297.63;5056453;28;987;-36
2021/05/19 09:45:23;;;;;;;;;;;;;;;27.45;32.16;100314.47;5056843;28;732;-38
2021/05/19 09:47:48;;;;;;;;;;;;;;;27.43;32.83;100313.81;5057391;28;830;-41
2021/05/19 09:50:15;;;;;;;;;;;;;;;27.43;32.83;100313.81;5056888;28;1969;-37
2021/05/19 09:52:40;;;;;;;;;;;;;;;27.45;33.00;100319.88;5057198;28;767;-38
2021/05/19 09:55:10;;;;;;;;;;;;;;;27.47;32.58;100320.53;5039245;28;1301;-39
2021/05/19 09:57:42;;;;;;;;;;;;;;;27.53;32.50;100319.72;5056508;28;960;-37
2021/05/19 10:00:08;;;;;;;;;;;;;;;27.47;32.69;100313.25;5057232;28;779;-38
2021/05/19 10:02:33;;;;;;;;;;;;;;;27.47;32.81;100309.72;5057297;28;794;-37
2021/05/19 10:05:08;;;;;;;;;;;;;;;27.43;32.25;100297.63;5056855;28;961;-41
2021/05/19 10:07:34;;;;;;;;;;;;;;;27.51;32.25;100302.88;5040701;28;806;-41
2021/05/19 10:09:59;;;;;;;;;;;;;;;27.53;32.19;100313.50;5057031;28;1963;-39
2021/05/19 10:12:24;;;;;;;;;;;;;;;27.67;32.13;100301.75;5056465;28;1011;-39
2021/05/19 10:14:49;;;;;;;;;;;;;;;27.65;32.32;100305.66;5057194;28;882;-40
2021/05/19 10:17:15;;;;;;;;;;;;;;;27.66;32.40;100297.38;5057101;28;790;-36
2021/05/19 10:19:41;;;;;;;;;;;;;;;27.71;32.34;100305.75;5038469;28;981;-40
2021/05/19 10:22:10;;;;;;;;;;;;;;;27.70;32.31;100298.69;5038985;28;837;-39
2021/05/19 10:24:59;;;;;;;;;;;;;;;27.69;32.51;100304.28;5039593;28;807;-39
2021/05/19 10:27:25;;;;;;;;;;;;;;;27.69;32.37;100291.63;5056005;28;971;-41
2021/05/19 10:30:00;;;;;;;;;;;;;;;27.61;31.16;100289.03;5056643;28;1906;-38
2021/05/19 10:32:28;;;;;;;;;;;;;;;27.60;30.30;100276.53;5057491;28;803;-37
2021/05/19 10:34:55;;;;;;;;;;;;;;;27.56;30.06;100280.69;5056323;28;830;-38
2021/05/19 10:37:26;;;;;;;;;;;;;;;27.57;30.94;100285.91;5056601;28;849;-37
2021/05/19 10:39:57;;;;;;;;;;;;;;;27.52;31.42;100282.94;5056241;28;1116;-40
2021/05/19 10:42:49;;;;;;;;;;;;;;;27.63;31.62;100295.06;5038092;28;1343;-41
2021/05/19 10:45:15;;;;;;;;;;;;;;;27.59;31.15;100289.22;5051603;28;1208;-37
2021/05/19 10:47:45;;;;;;;;;;;;;;;27.77;31.74;100284.38;5056702;28;837;-37
2021/05/19 10:58:28;;;;;;;;;;;;;;;27.78;31.34;100267.97;5055883;28;947;-41
2021/05/19 11:00:54;;;;;;;;;;;;;;;27.75;31.60;100263.78;5056589;28;842;-37
2021/05/19 11:03:19;;;;;;;;;;;;;;;27.76;32.00;100264.59;5041863;28;831;-36
2021/05/19 11:05:54;;;;;;;;;;;;;;;27.67;32.87;100260.38;5060389;28;810;-38
2021/05/19 11:08:20;;;;;;;;;;;;;;;27.73;31.96;100260.44;5060877;28;815;-35
2021/05/19 11:10:48;;;;;;;;;;;;;;;27.72;31.92;100253.38;5059528;28;1905;-34
2021/05/19 11:13:13;;;;;;;;;;;;;;;27.72;31.87;100247.97;5060318;28;1019;-36
2021/05/19 11:21:20;;;;;;;;;;;;;;;28.13;31.02;100250.84;5059348;28;1654;-35
2021/05/19 11:24:01;;;;;;;;;;;;;;;28.21;30.90;100241.75;5060443;28;752;-35
2021/05/19 11:26:26;;;;;;;;;;;;;;;28.17;30.89;100244.03;5059517;28;991;-36
2021/05/19 11:28:55;;;;;;;;;;;;;;;28.15;31.13;100234.44;5059968;28;1905;-36
2021/05/19 11:31:21;;;;;;;;;;;;;;;28.16;31.36;100234.22;5060368;28;814;-36
2021/05/19 11:33:50;;;;;;;;;;;;;;;28.17;31.29;100232.38;5059870;28;840;-36
2021/05/19 11:36:31;;;;;;;;;;;;;;;28.01;31.21;100225.44;5060318;28;751;-37
2021/05/19 11:38:56;;;;;;;;;;;;;;;27.92;31.48;100227.47;5059904;28;1133;-36
2021/05/19 11:41:22;;;;;;;;;;;;;;;27.90;31.55;100230.38;5058930;28;999;-36
2021/05/19 11:43:47;;;;;;;;;;;;;;;27.96;31.82;100229.56;5047432;28;1035;-36
2021/05/19 11:46:14;;;;;;;;;;;;;;;27.93;31.79;100227.28;5056091;28;831;-36
2021/05/19 11:48:39;;;;;;;;;;;;;;;27.88;31.91;100218.94;5059039;28;755;-36
2021/05/19 11:51:15;;;;;;;;;;;;;;;27.86;32.23;100224.53;5059601;28;1905;-36
2021/05/19 11:53:52;;;;;;;;;;;;;;;27.83;32.08;100213.28;5055281;28;882;-36
2021/05/19 11:56:17;;;;;;;;;;;;;;;27.85;32.00;100213.94;5051521;28;864;-36
2021/05/19 11:58:42;;;;;;;;;;;;;;;27.86;32.18;100212.91;5059256;28;752;-35
2021/05/19 12:01:08;;;;;;;;;;;;;;;27.84;32.22;100214.97;5049267;28;843;-36
2021/05/19 12:03:36;;;;;;;;;;;;;;;27.89;32.41;100209.81;5038805;28;795;-36
2021/05/19 12:06:03;;;;;;;;;;;;;;;27.83;32.31;100205.19;5039341;28;735;-36
2021/05/19 12:08:31;;;;;;;;;;;;;;;27.84;32.27;100204.16;5039047;28;771;-36
2021/05/19 12:11:07;;;;;;;;;;;;;;;27.89;32.63;100199.00;5038887;28;1906;-35
2021/05/19 12:13:36;;;;;;;;;;;;;;;27.89;32.09;100195.44;5038281;28;964;-36
2021/05/19 12:16:02;;;;;;;;;;;;;;;27.95;31.82;100195.47;5039053;28;759;-36
2021/05/19 12:18:27;;;;;;;;;;;;;;;27.96;32.11;100190.91;5039112;28;846;-36
2021/05/19 12:20:52;;;;;;;;;;;;;;;28.00;32.28;100181.34;5038984;28;826;-36
2021/05/19 12:23:18;;;;;;;;;;;;;;;27.95;32.16;100175.72;5039007;28;740;-36
2021/05/19 12:25:43;;;;;;;;;;;;;;;28.02;32.03;100175.75;5038214;28;819;-36
2021/05/19 12:28:09;;;;;;;;;;;;;;;28.01;31.93;100182.19;5055500;28;952;-37
2021/05/19 12:30:51;;;;;;;;;;;;;;;28.03;31.79;100172.03;5059115;28;1959;-36
2021/05/19 12:33:21;;;;;;;;;;;;;;;27.98;32.03;100178.84;5058498;28;727;-36
2021/05/19 12:35:47;;;;;;;;;;;;;;;28.01;32.28;100179.50;5058352;28;775;-37
2021/05/19 12:38:13;;;;;;;;;;;;;;;28.07;32.06;100171.41;5058693;28;1036;-36
2021/05/19 12:40:39;;;;;;;;;;;;;;;28.02;31.89;100176.59;5057879;28;803;-35
2021/05/19 12:43:07;;;;;;;;;;;;;;;28.02;32.23;100173.88;5058658;28;983;-37
2021/05/19 12:45:36;;;;;;;;;;;;;;;28.04;31.77;100152.88;5058149;28;786;-36
2021/05/19 12:48:05;;;;;;;;;;;;;;;28.03;32.21;100153.09;5058285;28;810;-37
2021/05/19 12:50:39;;;;;;;;;;;;;;;28.17;31.34;100148.53;5058171;28;1971;-36
2021/05/19 12:53:04;;;;;;;;;;;;;;;28.18;31.72;100153.72;5058339;28;769;-35
2021/05/19 12:55:30;;;;;;;;;;;;;;;28.24;31.90;100152.09;5057975;28;731;-35
2021/05/19 12:58:05;;;;;;;;;;;;;;;28.34;31.69;100154.44;5057498;28;971;-35
2021/05/19 13:00:30;;;;;;;;;;;;;;;28.32;31.72;100151.91;5058238;28;755;-35
2021/05/19 13:02:55;;;;;;;;;;;;;;;28.29;31.88;100141.50;5057629;28;863;-35
2021/05/19 13:05:22;;;;;;;;;;;;;;;28.38;31.55;100154.84;5057765;28;857;-35
2021/05/19 13:07:49;;;;;;;;;;;;;;;28.43;31.22;100142.34;5057709;28;818;-35